Time;durP1;ratioP1;P1;durP2;ratioP2;P2;SDS_P1;SDS_P2;PMS_P1;PMS_P2;Temp;Humidity;BMP_temperature;BMP_pressure;BME280_temperature;BME280_humidity;BME280_pressure;Samples;Min_cycle;Max_cycle;Signal;HPM_P1;HPM_P2
2023/01/10 00:01:08;;;;;;;11.17;5.37;;;-16.10;94.40;;;;;;5029572;28;20041;-83
2023/01/10 00:03:34;;;;;;;15.93;6.67;;;-16.00;94.40;;;;;;5038055;28;20052;-78
2023/01/10 00:06:00;;;;;;;7.37;3.23;;;-16.00;94.40;;;;;;5041083;28;20060;-80
2023/01/10 00:08:26;;;;;;;36.37;5.13;;;-16.00;94.40;;;;;;5035203;28;20394;-81
2023/01/10 00:10:51;;;;;;;9.73;4.93;;;-16.00;93.90;;;;;;5033634;28;20026;-83
2023/01/10 00:13:24;;;;;;;7.40;4.67;;;-16.10;93.90;;;;;;5031838;28;20033;-80
2023/01/10 00:15:54;;;;;;;5.75;2.97;;;-16.10;94.00;;;;;;5031947;28;20546;-81
2023/01/10 00:18:21;;;;;;;5.00;3.85;;;-16.10;94.10;;;;;;5031987;28;20025;-81
2023/01/10 00:20:50;;;;;;;4.40;3.63;;;-16.00;94.20;;;;;;5031753;28;20025;-81
2023/01/10 00:23:17;;;;;;;12.52;5.07;;;-16.10;94.00;;;;;;5032478;28;20040;-81
2023/01/10 00:25:43;;;;;;;12.02;4.55;;;-16.10;94.00;;;;;;5035940;28;20014;-81
2023/01/10 00:28:21;;;;;;;8.13;5.00;;;-16.10;94.10;;;;;;5025060;28;20041;-80
2023/01/10 00:30:59;;;;;;;5.88;3.63;;;-16.00;94.10;;;;;;5037857;28;20025;-81
2023/01/10 00:33:26;;;;;;;5.47;3.30;;;-16.00;94.20;;;;;;5014651;28;20113;-82
2023/01/10 00:35:51;;;;;;;6.85;4.30;;;-15.90;94.20;;;;;;5032750;28;20049;-81
2023/01/10 00:38:17;;;;;;;8.50;3.53;;;-15.90;94.20;;;;;;5032661;28;20142;-81
2023/01/10 00:40:44;;;;;;;8.83;4.77;;;-15.90;94.30;;;;;;5032613;28;20505;-81
2023/01/10 00:45:56;;;;;;;1.67;1.58;;;-15.80;94.30;;;;;;5032439;28;20048;-82
2023/01/10 00:48:22;;;;;;;8.07;4.07;;;-15.80;94.10;;;;;;5032151;28;20057;-80
2023/01/10 00:50:48;;;;;;;4.53;2.83;;;-15.90;93.90;;;;;;5033376;28;20013;-82
2023/01/10 00:53:14;;;;;;;8.73;4.63;;;-15.90;94.00;;;;;;5042635;28;20053;-82
2023/01/10 00:55:40;;;;;;;8.43;3.37;;;-15.90;94.00;;;;;;5031693;28;20052;-81
2023/01/10 00:58:07;;;;;;;8.20;3.93;;;-15.90;94.20;;;;;;5035355;28;20259;-83
2023/01/10 01:00:33;;;;;;;9.60;5.07;;;-15.90;94.10;;;;;;5035013;28;20029;-82
2023/01/10 01:02:59;;;;;;;8.27;4.63;;;-15.90;94.10;;;;;;5035327;28;20124;-81
2023/01/10 01:05:26;;;;;;;8.98;4.05;;;-15.90;94.30;;;;;;5032337;28;20021;-81
2023/01/10 01:07:51;;;;;;;8.38;4.78;;;-15.90;94.00;;;;;;5050145;28;20505;-80
2023/01/10 01:10:27;;;;;;;5.40;3.90;;;-15.90;94.00;;;;;;5038645;28;20030;-82
2023/01/10 01:12:55;;;;;;;6.33;3.43;;;-15.80;94.10;;;;;;5036595;28;20060;-81
2023/01/10 01:15:22;;;;;;;12.95;4.20;;;-15.80;94.00;;;;;;5017668;28;20025;-82
2023/01/10 01:17:48;;;;;;;4.85;3.60;;;-15.80;93.90;;;;;;5036045;28;20025;-83
2023/01/10 01:20:14;;;;;;;6.13;3.07;;;-15.80;93.90;;;;;;5037695;28;20029;-82
2023/01/10 01:22:40;;;;;;;8.20;4.30;;;-15.80;93.90;;;;;;5020018;28;20026;-82
2023/01/10 01:25:07;;;;;;;15.20;4.55;;;-15.90;93.80;;;;;;5038271;28;20262;-82
2023/01/10 01:27:33;;;;;;;6.72;4.57;;;-15.80;93.90;;;;;;5036121;28;20095;-82
2023/01/10 01:30:00;;;;;;;7.45;5.82;;;-15.80;93.90;;;;;;5017802;28;20013;-83
2023/01/10 01:32:26;;;;;;;9.77;4.53;;;-15.80;93.90;;;;;;5034981;28;20075;-84
2023/01/10 01:34:52;;;;;;;7.20;4.32;;;-15.70;94.00;;;;;;5035077;28;20018;-83
2023/01/10 01:37:18;;;;;;;4.23;2.63;;;-15.70;94.00;;;;;;5050707;28;20120;-82
2023/01/10 01:39:46;;;;;;;7.87;3.90;;;-15.70;94.00;;;;;;5048211;28;20021;-82
2023/01/10 01:42:33;;;;;;;12.18;6.30;;;-15.70;93.90;;;;;;5037436;28;20029;-82
2023/01/10 01:45:08;;;;;;;8.55;4.85;;;-15.60;94.00;;;;;;5018501;28;20402;-81
2023/01/10 01:47:52;;;;;;;11.20;5.88;;;-15.60;93.90;;;;;;5035758;28;20433;-83
2023/01/10 01:51:06;;;;;;;6.28;3.17;;;-15.60;93.90;;;;;;5034114;28;20018;-84
2023/01/10 01:53:48;;;;;;;13.82;5.57;;;-15.70;93.50;;;;;;5007832;28;20502;-82
2023/01/10 01:56:19;;;;;;;3.00;2.30;;;-15.70;93.40;;;;;;5023912;28;20064;-82
2023/01/10 01:58:55;;;;;;;6.13;4.05;;;-15.70;93.30;;;;;;5034225;28;20022;-82
2023/01/10 02:01:21;;;;;;;11.50;6.85;;;-15.90;93.10;;;;;;5024251;28;20045;-84
2023/01/10 02:03:49;;;;;;;;;;;-15.80;93.20;;;;;;5022766;28;20115;-81
2023/01/10 02:06:17;;;;;;;3.47;2.55;;;-15.90;93.00;;;;;;5034184;28;20561;-83
2023/01/10 02:08:50;;;;;;;4.22;2.33;;;-15.90;93.10;;;;;;5034192;28;20029;-82
2023/01/10 02:11:16;;;;;;;8.80;4.05;;;-15.90;93.00;;;;;;5020351;28;20025;-83
2023/01/10 02:13:44;;;;;;;12.43;6.13;;;-16.00;93.00;;;;;;5022074;28;20099;-82
2023/01/10 02:16:11;;;;;;;7.15;5.20;;;-15.90;93.40;;;;;;5034170;28;20024;-83
2023/01/10 02:18:41;;;;;;;8.35;4.75;;;-15.90;93.40;;;;;;5034246;28;20029;-82
2023/01/10 02:21:43;;;;;;;7.68;4.25;;;-15.80;93.50;;;;;;5037900;28;20118;-81
2023/01/10 02:24:22;;;;;;;13.05;4.45;;;-15.80;93.40;;;;;;5011455;28;20554;-81
2023/01/10 02:26:51;;;;;;;11.77;4.95;;;-15.80;93.50;;;;;;5025431;28;20018;-82
2023/01/10 02:29:29;;;;;;;5.13;2.25;;;-15.70;93.90;;;;;;5033610;28;20049;-83
2023/01/10 02:32:18;;;;;;;7.30;3.35;;;-15.70;93.70;;;;;;5026367;28;20032;-82
2023/01/10 02:35:03;;;;;;;7.07;4.50;;;-15.70;93.50;;;;;;5023572;28;20099;-82
2023/01/10 02:38:10;;;;;;;10.05;4.45;;;-15.70;93.30;;;;;;5027111;28;20061;-83
2023/01/10 02:40:42;;;;;;;11.32;5.50;;;-15.80;93.10;;;;;;5003802;28;20041;-82
2023/01/10 02:43:18;;;;;;;10.73;3.85;;;-15.90;93.20;;;;;;5033476;28;20025;-81
2023/01/10 02:45:56;;;;;;;4.70;2.83;;;-15.80;93.40;;;;;;5032921;28;20022;-82
2023/01/10 02:48:22;;;;;;;6.80;4.00;;;-15.70;93.40;;;;;;5033477;28;20034;-82
2023/01/10 02:50:59;;;;;;;6.75;4.32;;;-15.80;93.50;;;;;;5045962;28;20016;-81
2023/01/10 02:53:32;;;;;;;9.25;5.10;;;-15.70;93.40;;;;;;5039699;28;20025;-82
2023/01/10 02:55:58;;;;;;;3.22;2.22;;;-15.70;93.40;;;;;;5033637;28;20020;-85
2023/01/10 02:58:51;;;;;;;7.50;5.00;;;-15.60;93.60;;;;;;5033164;28;20025;-82
2023/01/10 03:01:42;;;;;;;6.93;4.55;;;-15.60;93.60;;;;;;5022510;28;20044;-84
2023/01/10 03:04:40;;;;;;;15.95;5.90;;;-15.60;93.70;;;;;;5015556;28;20017;-84
2023/01/10 03:07:27;;;;;;;8.57;4.35;;;-15.50;93.60;;;;;;4996173;28;20042;-83
2023/01/10 03:10:04;;;;;;;8.85;4.75;;;-15.50;93.50;;;;;;5024498;28;20044;-83
2023/01/10 03:12:49;;;;;;;2.88;2.25;;;-15.60;93.40;;;;;;5033550;28;20471;-84
2023/01/10 03:15:18;;;;;;;10.80;4.93;;;-15.50;93.50;;;;;;5036554;28;20574;-83
2023/01/10 03:17:48;;;;;;;10.13;4.30;;;-15.50;93.60;;;;;;5021188;28;20017;-82
2023/01/10 03:20:19;;;;;;;9.70;4.80;;;-15.40;93.70;;;;;;5034360;28;20104;-82
2023/01/10 03:22:46;;;;;;;11.13;6.55;;;-15.40;93.60;;;;;;5045847;28;20078;-83
2023/01/10 03:25:15;;;;;;;6.10;3.92;;;-15.40;93.70;;;;;;5049106;28;20033;-83
2023/01/10 03:27:50;;;;;;;8.95;4.07;;;-15.40;93.70;;;;;;5037532;28;20037;-85
2023/01/10 03:30:47;;;;;;;11.27;5.28;;;-15.40;93.50;;;;;;5032968;28;20444;-82
2023/01/10 03:33:16;;;;;;;12.07;6.32;;;-15.40;93.60;;;;;;5030441;28;20030;-82
2023/01/10 03:36:04;;;;;;;11.07;5.30;;;-15.40;93.40;;;;;;5004962;28;20485;-82
2023/01/10 03:38:42;;;;;;;14.32;5.40;;;-15.40;93.50;;;;;;5032778;28;20493;-83
2023/01/10 03:41:17;;;;;;;11.15;5.35;;;-15.30;93.60;;;;;;5033431;28;20045;-82
2023/01/10 03:46:46;;;;;;;14.15;6.32;;;-15.30;93.60;;;;;;5043791;28;20090;-82
2023/01/10 03:49:14;;;;;;;8.80;5.03;;;-15.20;93.80;;;;;;5037258;28;20117;-83
2023/01/10 03:51:40;;;;;;;5.32;3.33;;;-15.20;93.80;;;;;;5037538;28;20040;-82
2023/01/10 03:54:06;;;;;;;12.48;6.60;;;-15.10;93.90;;;;;;5042957;28;20018;-84
2023/01/10 03:56:48;;;;;;;13.47;7.00;;;-15.10;93.70;;;;;;5029558;28;20083;-83
2023/01/10 03:59:19;;;;;;;10.93;4.22;;;-15.10;93.90;;;;;;5031977;28;20017;-84
2023/01/10 04:01:45;;;;;;;7.30;3.83;;;-15.10;93.80;;;;;;5037251;28;20056;-83
2023/01/10 04:04:11;;;;;;;8.17;3.37;;;-15.10;93.90;;;;;;5033489;28;20025;-84
2023/01/10 04:06:37;;;;;;;7.15;4.85;;;-15.00;94.10;;;;;;5015276;28;20043;-82
2023/01/10 04:09:03;;;;;;;7.82;5.75;;;-15.00;94.00;;;;;;5030228;28;20021;-86
2023/01/10 04:11:29;;;;;;;5.17;3.87;;;-14.90;94.00;;;;;;5033329;28;20402;-82
2023/01/10 04:13:55;;;;;;;4.50;4.07;;;-14.90;94.10;;;;;;5015269;28;20021;-84
2023/01/10 04:16:20;;;;;;;9.00;5.03;;;-14.90;93.80;;;;;;5032938;28;20037;-84
2023/01/10 04:18:46;;;;;;;31.70;3.70;;;-14.90;93.70;;;;;;5033402;28;20018;-81
2023/01/10 04:21:12;;;;;;;7.37;5.67;;;-15.00;93.70;;;;;;5015959;28;20038;-83
2023/01/10 04:23:38;;;;;;;11.73;4.95;;;-15.00;93.70;;;;;;5029654;28;20033;-83
2023/01/10 04:26:04;;;;;;;9.57;4.87;;;-15.00;93.90;;;;;;5031988;28;20390;-84
2023/01/10 04:28:29;;;;;;;15.70;5.33;;;-14.90;94.10;;;;;;5034774;28;20496;-84
2023/01/10 04:30:55;;;;;;;4.33;3.47;;;-14.80;94.10;;;;;;5037148;28;20025;-84
2023/01/10 04:33:21;;;;;;;10.57;5.38;;;-14.80;93.80;;;;;;5024565;28;20036;-84
2023/01/10 04:35:49;;;;;;;10.90;5.43;;;-14.80;93.80;;;;;;5029858;28;20063;-83
2023/01/10 04:38:15;;;;;;;10.93;4.75;;;-14.70;93.80;;;;;;5036841;28;20092;-81
2023/01/10 04:40:41;;;;;;;5.07;2.60;;;-14.70;93.90;;;;;;5017190;28;20029;-83
2023/01/10 04:43:07;;;;;;;11.30;6.05;;;-14.70;93.80;;;;;;5035662;28;20022;-84
2023/01/10 04:45:33;;;;;;;11.30;5.78;;;-14.70;93.70;;;;;;5025905;28;20064;-82
2023/01/10 04:47:59;;;;;;;10.83;5.17;;;-14.70;93.80;;;;;;5035754;28;20057;-83
2023/01/10 04:50:25;;;;;;;3.90;2.30;;;-14.70;93.80;;;;;;5033567;28;20026;-84
2023/01/10 04:52:52;;;;;;;8.68;4.47;;;-14.60;94.00;;;;;;5059014;28;20025;-84
2023/01/10 04:55:18;;;;;;;8.38;5.00;;;-14.60;93.60;;;;;;5039958;28;20022;-84
2023/01/10 04:57:44;;;;;;;12.13;4.83;;;-14.70;93.40;;;;;;5038029;28;20025;-85
2023/01/10 05:00:11;;;;;;;15.52;5.57;;;-14.70;93.60;;;;;;5032056;28;20026;-83
2023/01/10 05:02:42;;;;;;;4.60;3.47;;;-14.70;93.80;;;;;;5038171;28;20068;-82
2023/01/10 05:05:12;;;;;;;5.28;3.42;;;-14.60;93.90;;;;;;5039825;28;20022;-84
2023/01/10 05:07:39;;;;;;;10.35;4.07;;;-14.50;94.20;;;;;;5049806;28;20077;-82
2023/01/10 05:10:07;;;;;;;12.18;5.88;;;-14.50;93.70;;;;;;5028356;28;20024;-83
2023/01/10 05:12:33;;;;;;;15.50;6.65;;;-14.60;93.60;;;;;;5036842;28;20440;-83
2023/01/10 05:14:59;;;;;;;6.13;4.07;;;-14.60;93.80;;;;;;5036560;28;20467;-85
2023/01/10 05:17:25;;;;;;;4.60;2.83;;;-14.60;93.90;;;;;;5035473;28;20533;-85
2023/01/10 05:19:51;;;;;;;9.50;5.22;;;-14.50;94.10;;;;;;5045681;28;20017;-85
2023/01/10 05:22:17;;;;;;;12.37;6.97;;;-14.40;94.00;;;;;;5047995;28;20025;-84
2023/01/10 05:24:43;;;;;;;15.50;7.57;;;-14.40;94.10;;;;;;5046457;28;20382;-84
2023/01/10 05:27:08;;;;;;;15.77;9.02;;;-14.30;94.40;;;;;;5035394;28;20517;-85
2023/01/10 05:29:34;;;;;;;10.73;6.30;;;-14.30;94.20;;;;;;5034895;28;20025;-83
2023/01/10 05:32:00;;;;;;;11.40;6.38;;;-14.20;94.30;;;;;;5034852;28;20021;-84
2023/01/10 05:34:26;;;;;;;11.90;6.15;;;-14.10;94.30;;;;;;5035572;28;20067;-85
2023/01/10 05:36:52;;;;;;;12.82;6.38;;;-14.10;94.10;;;;;;5036602;28;20033;-84
2023/01/10 05:39:18;;;;;;;9.65;5.43;;;-14.10;93.90;;;;;;5043119;28;20021;-85
2023/01/10 05:41:44;;;;;;;11.07;5.77;;;-14.10;94.00;;;;;;5048558;28;20116;-84
2023/01/10 05:44:10;;;;;;;11.75;5.88;;;-14.10;93.90;;;;;;5043195;28;20287;-83
2023/01/10 05:46:36;;;;;;;13.93;5.83;;;-14.20;93.80;;;;;;5041292;28;20060;-83
2023/01/10 05:49:01;;;;;;;7.43;4.75;;;-14.20;94.00;;;;;;5037550;28;20025;-84
2023/01/10 05:51:28;;;;;;;7.30;4.30;;;-14.20;93.90;;;;;;5029147;28;20083;-84
2023/01/10 05:53:54;;;;;;;8.45;4.85;;;-14.20;93.90;;;;;;5017472;28;20039;-84
2023/01/10 05:56:20;;;;;;;5.85;4.47;;;-14.20;93.90;;;;;;5024853;28;20061;-85
2023/01/10 05:58:46;;;;;;;8.25;4.50;;;-14.10;94.00;;;;;;5043112;28;20041;-84
2023/01/10 06:01:12;;;;;;;7.60;3.67;;;-14.10;94.00;;;;;;5042888;28;20069;-83
2023/01/10 06:03:38;;;;;;;11.00;4.93;;;-14.00;94.10;;;;;;5041275;28;20073;-84
2023/01/10 06:06:04;;;;;;;13.65;4.65;;;-14.00;94.00;;;;;;5037153;28;20139;-84
2023/01/10 06:08:30;;;;;;;13.63;8.53;;;-14.00;93.90;;;;;;5035237;28;20041;-85
2023/01/10 06:10:56;;;;;;;6.13;3.33;;;-13.90;94.10;;;;;;5038369;28;20017;-84
2023/01/10 06:13:23;;;;;;;11.27;5.57;;;-13.90;94.10;;;;;;5037724;28;20026;-86
2023/01/10 06:15:49;;;;;;;13.80;6.60;;;-13.80;94.00;;;;;;5037382;28;20029;-83
2023/01/10 06:18:15;;;;;;;10.23;4.50;;;-13.80;94.10;;;;;;5044421;28;20018;-86
2023/01/10 06:20:43;;;;;;;9.90;6.57;;;-13.70;94.30;;;;;;5038321;28;20025;-83
2023/01/10 06:23:09;;;;;;;7.40;3.92;;;-13.60;94.30;;;;;;5033866;28;20109;-84
2023/01/10 06:25:39;;;;;;;18.38;6.93;;;-13.60;94.30;;;;;;5034356;28;20553;-84
2023/01/10 06:28:05;;;;;;;10.50;5.53;;;-13.60;94.10;;;;;;5032777;28;20407;-81
2023/01/10 06:30:32;;;;;;;13.60;5.72;;;-13.50;94.20;;;;;;5032827;28;20096;-81
2023/01/10 06:33:03;;;;;;;7.57;4.90;;;-13.50;94.30;;;;;;5030923;28;20024;-83
2023/01/10 06:35:30;;;;;;;9.82;5.63;;;-13.50;94.30;;;;;;5038343;28;20386;-81
2023/01/10 06:37:57;;;;;;;14.80;6.65;;;-13.50;94.30;;;;;;5037653;28;20478;-84
2023/01/10 06:40:23;;;;;;;9.50;4.93;;;-13.50;94.50;;;;;;5015761;28;20568;-84
2023/01/10 06:42:49;;;;;;;13.70;4.40;;;-13.40;94.60;;;;;;5033797;28;20017;-82
2023/01/10 06:45:15;;;;;;;9.82;4.70;;;-13.40;94.50;;;;;;5033986;28;20486;-82
2023/01/10 06:47:41;;;;;;;7.10;4.03;;;-13.40;94.60;;;;;;5033661;28;20140;-84
2023/01/10 06:50:08;;;;;;;10.25;5.72;;;-13.30;94.80;;;;;;5038994;28;20254;-84
2023/01/10 06:52:34;;;;;;;5.68;4.47;;;-13.30;94.80;;;;;;5040205;28;20025;-85
2023/01/10 06:55:00;;;;;;;8.63;5.20;;;-13.30;95.00;;;;;;5048023;28;20060;-85
2023/01/10 06:57:27;;;;;;;8.60;4.20;;;-13.20;95.10;;;;;;5048356;28;20025;-85
2023/01/10 06:59:53;;;;;;;10.13;5.78;;;-13.10;95.50;;;;;;5035450;28;20131;-84
2023/01/10 07:02:19;;;;;;;13.98;6.20;;;-13.10;95.20;;;;;;5016263;28;20128;-85
2023/01/10 07:04:47;;;;;;;14.53;7.43;;;-13.10;95.30;;;;;;5035106;28;20087;-85
2023/01/10 07:07:13;;;;;;;10.45;4.88;;;-13.00;95.40;;;;;;5034052;28;20309;-86
2023/01/10 07:09:39;;;;;;;9.68;4.07;;;-13.00;95.40;;;;;;5033239;28;20014;-86
2023/01/10 07:12:08;;;;;;;12.82;5.80;;;-12.90;95.40;;;;;;5033610;28;20044;-83
2023/01/10 07:14:34;;;;;;;8.88;4.25;;;-12.90;95.40;;;;;;5033097;28;20469;-84
2023/01/10 07:17:00;;;;;;;4.78;3.25;;;-12.80;95.50;;;;;;5033852;28;20044;-85
2023/01/10 07:19:26;;;;;;;7.40;4.75;;;-12.80;95.50;;;;;;5034297;28;20022;-85
2023/01/10 07:21:52;;;;;;;7.95;4.07;;;-12.80;95.50;;;;;;5047602;28;20029;-85
2023/01/10 07:24:18;;;;;;;5.57;4.13;;;-12.80;95.50;;;;;;5024299;28;20026;-84
2023/01/10 07:26:43;;;;;;;10.75;5.95;;;-12.80;95.30;;;;;;5033445;28;20052;-83
2023/01/10 07:29:09;;;;;;;6.25;4.25;;;-12.80;95.30;;;;;;5034494;28;20356;-84
2023/01/10 07:31:35;;;;;;;7.93;4.55;;;-12.80;95.50;;;;;;5033494;28;20033;-84
2023/01/10 07:34:01;;;;;;;8.30;4.57;;;-12.70;95.60;;;;;;5033478;28;20017;-85
2023/01/10 07:36:27;;;;;;;9.38;5.55;;;-12.60;95.80;;;;;;5016396;28;20017;-84
2023/01/10 07:38:53;;;;;;;6.05;4.00;;;-12.50;95.70;;;;;;5015758;28;20041;-85
2023/01/10 07:41:19;;;;;;;10.95;4.55;;;-12.50;95.60;;;;;;5045068;28;20124;-84
2023/01/10 07:43:45;;;;;;;11.25;5.78;;;-12.50;95.50;;;;;;5037944;28;20025;-84
2023/01/10 07:46:11;;;;;;;10.10;4.85;;;-12.50;95.40;;;;;;5034026;28;20025;-84
2023/01/10 07:48:38;;;;;;;9.30;4.68;;;-12.40;95.50;;;;;;5033003;28;20056;-84
2023/01/10 07:51:05;;;;;;;9.70;6.22;;;-12.40;95.30;;;;;;5017621;28;20017;-84
2023/01/10 07:53:32;;;;;;;10.85;2.70;;;-12.40;95.10;;;;;;5021031;28;20545;-85
2023/01/10 07:56:02;;;;;;;9.38;5.13;;;-12.40;95.00;;;;;;5034310;28;20100;-85
2023/01/10 07:58:28;;;;;;;10.07;4.47;;;-12.40;95.10;;;;;;5031349;28;20517;-85
2023/01/10 08:00:59;;;;;;;10.07;4.65;;;-12.30;95.30;;;;;;5039259;28;20366;-84
2023/01/10 08:03:26;;;;;;;11.70;4.85;;;-12.30;95.30;;;;;;5041575;28;20032;-84
2023/01/10 08:06:06;;;;;;;4.43;2.85;;;-12.20;95.50;;;;;;5037422;28;20025;-86
2023/01/10 08:08:33;;;;;;;7.00;3.80;;;-12.20;95.00;;;;;;5033521;28;20043;-84
2023/01/10 08:11:01;;;;;;;9.43;4.65;;;-12.10;95.10;;;;;;5037823;28;20014;-86
2023/01/10 08:13:28;;;;;;;10.20;5.10;;;-12.10;94.80;;;;;;5037328;28;20029;-85
2023/01/10 08:15:53;;;;;;;4.97;3.55;;;-12.00;94.70;;;;;;5036621;28;20475;-84
2023/01/10 08:18:23;;;;;;;8.40;4.88;;;-12.00;94.70;;;;;;5036722;28;20033;-85
2023/01/10 08:20:50;;;;;;;7.65;4.95;;;-11.90;94.80;;;;;;5023103;28;20053;-85
2023/01/10 08:23:18;;;;;;;8.95;4.50;;;-11.80;94.80;;;;;;5057060;28;20026;-85
2023/01/10 08:25:43;;;;;;;;;;;-11.80;94.70;;;;;;5043541;28;20391;-85
2023/01/10 08:28:09;;;;;;;5.77;4.43;;;-11.80;94.50;;;;;;5036340;28;19937;-84
2023/01/10 08:30:36;;;;;;;8.20;4.40;;;-11.80;94.20;;;;;;5031968;28;20028;-85
2023/01/10 08:33:03;;;;;;;12.60;4.40;;;-11.80;94.20;;;;;;5037430;28;20049;-85
2023/01/10 08:35:30;;;;;;;6.80;4.15;;;-11.80;93.60;;;;;;5041005;28;20110;-85
2023/01/10 08:37:59;;;;;;;10.93;7.05;;;-11.80;94.00;;;;;;5028842;28;20026;-86
2023/01/10 08:40:26;;;;;;;6.43;3.67;;;-11.70;94.20;;;;;;5051496;28;20025;-83
2023/01/10 08:43:00;;;;;;;7.30;3.60;;;-11.60;94.30;;;;;;5026635;28;20032;-85
2023/01/10 08:45:26;;;;;;;12.60;5.35;;;-11.50;94.10;;;;;;5036721;28;20494;-85
2023/01/10 08:47:52;;;;;;;7.95;2.90;;;-11.50;94.00;;;;;;5041665;28;20136;-84
2023/01/10 08:50:18;;;;;;;8.95;4.32;;;-11.40;94.00;;;;;;5044149;28;20025;-85
2023/01/10 08:52:44;;;;;;;9.38;4.68;;;-11.50;93.70;;;;;;5052660;28;20021;-85
2023/01/10 08:55:11;;;;;;;6.97;4.45;;;-11.40;93.70;;;;;;5023794;28;20395;-85
2023/01/10 08:57:36;;;;;;;8.20;3.30;;;-11.30;93.70;;;;;;5037727;28;20085;-86
2023/01/10 09:00:04;;;;;;;8.70;5.05;;;-11.30;93.60;;;;;;5019162;28;20494;-87
2023/01/10 09:02:48;;;;;;;;;;;-11.30;93.70;;;;;;5052480;28;20053;-85
2023/01/10 09:05:51;;;;;;;7.30;3.90;;;-11.20;93.30;;;;;;5026432;28;19909;-85
2023/01/10 09:08:45;;;;;;;9.30;3.85;;;-11.10;93.50;;;;;;5047231;28;20056;-86
2023/01/10 09:11:48;;;;;;;10.98;4.47;;;-11.10;93.20;;;;;;5037803;28;20347;-85
2023/01/10 09:14:51;;;;;;;20.00;6.47;;;-11.00;93.30;;;;;;5035729;28;20017;-86
2023/01/10 09:17:36;;;;;;;8.95;5.70;;;-11.00;93.20;;;;;;5035796;28;20073;-84
2023/01/10 09:20:39;;;;;;;13.30;4.75;;;-10.90;93.20;;;;;;5037404;28;20057;-84
2023/01/10 09:23:27;;;;;;;10.70;4.50;;;-10.70;93.40;;;;;;5034246;28;20029;-86
2023/01/10 09:26:12;;;;;;;4.88;3.38;;;-10.60;93.20;;;;;;5037716;28;20029;-84
2023/01/10 09:29:16;;;;;;;8.13;4.38;;;-10.50;93.20;;;;;;5022771;28;20409;-84
2023/01/10 09:32:00;;;;;;;8.88;3.72;;;-10.60;92.40;;;;;;5036068;28;20017;-86
2023/01/10 09:35:03;;;;;;;11.15;3.88;;;-10.70;92.30;;;;;;5036179;28;20104;-84
2023/01/10 09:38:06;;;;;;;13.73;5.63;;;-10.60;92.70;;;;;;5036699;28;20099;-87
2023/01/10 09:41:08;;;;;;;3.95;2.67;;;-10.40;92.70;;;;;;5036694;28;20017;-85
2023/01/10 09:44:04;;;;;;;11.45;4.10;;;-10.30;92.20;;;;;;5055428;28;20013;-85
2023/01/10 09:47:07;;;;;;;5.38;2.97;;;-10.30;92.20;;;;;;5032604;28;20075;-86
2023/01/10 09:50:10;;;;;;;2.88;2.25;;;-10.30;91.60;;;;;;5037568;28;20079;-86
2023/01/10 09:53:14;;;;;;;5.30;3.58;;;-10.50;90.20;;;;;;5044974;28;20056;-86
2023/01/10 09:56:17;;;;;;;6.65;3.08;;;-10.60;90.70;;;;;;5029929;28;20037;-83
2023/01/10 09:59:20;;;;;;;9.93;4.40;;;-10.70;90.70;;;;;;5032182;28;20035;-86
2023/01/10 10:02:16;;;;;;;7.00;4.63;;;-10.70;91.10;;;;;;5028146;28;20094;-85
2023/01/10 10:05:19;;;;;;;7.17;2.27;;;-10.60;91.20;;;;;;5019504;28;20114;-84
2023/01/10 10:08:23;;;;;;;8.15;5.03;;;-10.60;91.00;;;;;;5033310;28;20029;-85
2023/01/10 10:11:09;;;;;;;9.73;3.40;;;-10.60;91.00;;;;;;5052853;28;20486;-85
2023/01/10 10:14:12;;;;;;;11.63;4.07;;;-10.70;90.40;;;;;;5018663;28;20030;-86
2023/01/10 10:17:15;;;;;;;4.15;2.83;;;-10.70;90.90;;;;;;5037849;28;20089;-84
2023/01/10 10:20:19;;;;;;;5.70;3.75;;;-10.70;90.00;;;;;;5021391;28;20032;-86
2023/01/10 10:22:53;;;;;;;14.25;4.28;;;-10.80;90.60;;;;;;5035598;28;20022;-85
2023/01/10 10:25:41;;;;;;;8.35;3.15;;;-10.60;91.00;;;;;;5034439;28;20025;-85
2023/01/10 10:28:44;;;;;;;10.30;4.20;;;-10.60;91.20;;;;;;5035001;28;20028;-85
2023/01/10 10:31:20;;;;;;;5.20;3.08;;;-10.50;91.10;;;;;;5017191;28;20029;-86
2023/01/10 10:34:11;;;;;;;9.15;4.18;;;-10.40;90.90;;;;;;5017083;28;20021;-84
2023/01/10 10:37:15;;;;;;;9.75;3.33;;;-10.40;91.10;;;;;;5017599;28;20084;-83
2023/01/10 10:39:50;;;;;;;5.60;3.28;;;-10.40;90.80;;;;;;5024139;28;20026;-85
2023/01/10 10:42:35;;;;;;;10.75;4.78;;;-10.40;91.00;;;;;;5034746;28;20021;-86
2023/01/10 10:45:21;;;;;;;10.15;5.20;;;-10.30;91.20;;;;;;5035084;28;20043;-86
2023/01/10 10:48:25;;;;;;;7.28;3.80;;;-10.20;91.10;;;;;;5036315;28;20117;-87
2023/01/10 10:51:15;;;;;;;7.07;4.25;;;-10.10;91.20;;;;;;5030758;28;20040;-87
2023/01/10 10:54:18;;;;;;;5.07;3.35;;;-10.10;90.80;;;;;;5067881;28;20092;-84
2023/01/10 10:57:21;;;;;;;8.90;3.13;;;-10.10;90.60;;;;;;5038313;28;20105;-85
2023/01/10 11:00:25;;;;;;;9.65;3.90;;;-10.10;90.70;;;;;;5033183;28;20036;-85
2023/01/10 11:03:28;;;;;;;7.75;4.25;;;-10.10;90.40;;;;;;5040212;28;20041;-84
2023/01/10 11:06:31;;;;;;;4.32;3.00;;;-10.10;90.40;;;;;;5039752;28;20021;-84
2023/01/10 11:10:14;;;;;;;4.75;2.78;;;-10.10;90.40;;;;;;5040883;28;20065;-85
2023/01/10 11:13:04;;;;;;;11.13;4.93;;;-10.20;88.70;;;;;;5033587;28;20399;-86
2023/01/10 11:15:52;;;;;;;8.32;4.28;;;-10.40;88.90;;;;;;5034118;28;20082;-87
2023/01/10 11:18:37;;;;;;;7.97;4.72;;;-10.40;89.70;;;;;;5035947;28;20025;-88
2023/01/10 11:21:23;;;;;;;10.38;3.70;;;-10.40;90.10;;;;;;5017335;28;20067;-86
2023/01/10 11:24:08;;;;;;;7.05;3.83;;;-10.40;89.90;;;;;;5038864;28;20030;-85
2023/01/10 11:26:57;;;;;;;8.43;3.58;;;-10.40;90.00;;;;;;5028062;28;20021;-86
2023/01/10 11:29:44;;;;;;;9.00;4.13;;;-10.40;90.30;;;;;;5036058;28;20033;-87
2023/01/10 11:32:47;;;;;;;8.05;3.95;;;-10.30;90.30;;;;;;5050770;28;20486;-86
2023/01/10 11:35:30;;;;;;;10.10;4.82;;;-10.30;90.40;;;;;;5030033;28;20026;-85
2023/01/10 11:37:59;;;;;;;9.50;4.40;;;-10.30;90.30;;;;;;5033066;28;20021;-85
2023/01/10 11:41:04;;;;;;;7.90;3.83;;;-10.30;90.00;;;;;;5037294;28;20033;-85
2023/01/10 11:44:08;;;;;;;11.40;3.50;;;-10.20;90.30;;;;;;4990408;28;20034;-86
2023/01/10 11:46:54;;;;;;;10.07;4.38;;;-10.30;90.10;;;;;;5034157;28;20017;-86
2023/01/10 11:49:58;;;;;;;7.93;2.97;;;-10.30;90.00;;;;;;5038725;28;20097;-84
2023/01/10 11:52:47;;;;;;;15.52;5.55;;;-10.30;90.30;;;;;;5035596;28;20028;-84
2023/01/10 11:55:36;;;;;;;10.60;5.03;;;-10.30;89.50;;;;;;5015306;28;20030;-85
2023/01/10 11:58:39;;;;;;;7.20;4.35;;;-10.20;90.10;;;;;;5015719;28;20032;-85
2023/01/10 12:01:43;;;;;;;10.60;4.82;;;-10.20;90.10;;;;;;5015241;28;20055;-88
2023/01/10 12:04:17;;;;;;;5.93;4.57;;;-10.10;90.20;;;;;;5036839;28;20450;-85
2023/01/10 12:07:03;;;;;;;7.72;4.65;;;-10.20;89.30;;;;;;5026385;28;20082;-85
2023/01/10 12:09:56;;;;;;;9.98;4.88;;;-10.20;89.20;;;;;;5037260;28;20113;-85
2023/01/10 12:12:59;;;;;;;6.18;3.63;;;-10.30;89.10;;;;;;5038563;28;20022;-84
2023/01/10 12:15:45;;;;;;;7.13;3.15;;;-10.20;89.80;;;;;;5015202;28;20037;-85
2023/01/10 12:18:51;;;;;;;7.10;3.03;;;-10.20;88.60;;;;;;5033091;28;20025;-85
2023/01/10 12:21:38;;;;;;;4.55;2.88;;;-10.30;89.20;;;;;;5053766;28;20120;-86
2023/01/10 12:24:43;;;;;;;11.50;5.53;;;-10.20;89.90;;;;;;5028701;28;20025;-84
2023/01/10 12:27:49;;;;;;;6.50;3.88;;;-10.20;89.60;;;;;;5007128;28;20041;-88
2023/01/10 12:30:50;;;;;;;9.23;3.43;;;-10.30;87.40;;;;;;5022711;28;20028;-85
2023/01/10 12:33:37;;;;;;;10.02;4.97;;;-10.50;88.30;;;;;;5040930;28;20025;-85
2023/01/10 12:36:57;;;;;;;6.80;3.80;;;-10.50;89.20;;;;;;5043636;28;20057;-85
2023/01/10 12:40:02;;;;;;;10.90;6.25;;;-10.60;89.20;;;;;;4954224;28;20400;-86
2023/01/10 12:46:10;;;;;;;8.73;4.68;;;-10.50;89.90;;;;;;4955541;28;20115;-84
2023/01/10 12:49:13;;;;;;;10.60;5.63;;;-10.60;89.40;;;;;;4965269;28;20058;-85
2023/01/10 12:52:16;;;;;;;10.48;4.95;;;-10.60;89.70;;;;;;4969806;28;20074;-85
2023/01/10 12:55:19;;;;;;;9.15;5.95;;;-10.60;89.80;;;;;;4960580;29;20075;-86
2023/01/10 12:58:22;;;;;;;8.38;5.05;;;-10.50;90.20;;;;;;4965814;28;20030;-86
2023/01/10 13:01:08;;;;;;;12.07;5.55;;;-10.40;89.40;;;;;;4956045;28;20106;-86
2023/01/10 13:03:53;;;;;;;5.32;3.53;;;-10.40;90.10;;;;;;4956540;28;20039;-85
2023/01/10 13:06:56;;;;;;;7.90;3.22;;;-10.40;90.20;;;;;;4957893;28;20035;-85
2023/01/10 13:09:58;;;;;;;6.47;4.20;;;-10.50;89.50;;;;;;4964696;28;20043;-85
2023/01/10 13:13:05;;;;;;;9.30;4.25;;;-10.50;89.60;;;;;;4964594;28;20343;-84
2023/01/10 13:16:08;;;;;;;11.15;6.38;;;-10.50;88.50;;;;;;5018906;28;20629;-87
2023/01/10 13:18:34;;;;;;;13.40;5.32;;;-10.60;89.30;;;;;;5037438;28;20032;-84
2023/01/10 13:21:37;;;;;;;7.75;5.28;;;-10.60;89.40;;;;;;5030497;28;20025;-84
2023/01/10 13:24:40;;;;;;;15.60;6.13;;;-10.60;89.90;;;;;;5025700;28;20021;-85
2023/01/10 13:27:43;;;;;;;6.53;4.13;;;-10.60;89.70;;;;;;5034943;28;20483;-84
2023/01/10 13:30:42;;;;;;;13.85;4.95;;;-10.60;89.80;;;;;;5005134;28;20401;-85
2023/01/10 13:33:46;;;;;;;4.85;3.28;;;-10.60;90.00;;;;;;5040754;28;20022;-85